Time;durP1;ratioP1;P1;durP2;ratioP2;P2;SDS_P1;SDS_P2;PMS_P1;PMS_P2;Temp;Humidity;BMP_temperature;BMP_pressure;BME280_temperature;BME280_humidity;BME280_pressure;Samples;Min_cycle;Max_cycle;Signal;HPM_P1;HPM_P2
2022/03/09 00:00:42;;;;;;;27.30;15.93;;;;;;;-0.74;66.33;102005.66;7397372;19;20039;-65
2022/03/09 00:03:10;;;;;;;26.52;16.63;;;;;;;-0.77;66.07;102011.56;7395278;19;20035;-65
2022/03/09 00:05:41;;;;;;;24.45;15.55;;;;;;;-0.79;66.36;102004.59;7397174;19;20036;-65
2022/03/09 00:08:09;;;;;;;26.30;15.50;;;;;;;-0.84;66.21;102000.06;7397121;19;20035;-65
2022/03/09 00:10:37;;;;;;;24.48;15.77;;;;;;;-0.85;66.24;102002.59;7396059;19;20031;-66
2022/03/09 00:13:05;;;;;;;26.35;15.70;;;;;;;-0.88;66.30;102005.91;7395806;19;20031;-66
2022/03/09 00:15:33;;;;;;;23.23;14.93;;;;;;;-0.91;66.54;102003.22;7395038;19;20022;-65
2022/03/09 00:18:02;;;;;;;28.70;16.30;;;;;;;-0.94;66.52;102005.63;7394317;19;20031;-67
2022/03/09 00:20:30;;;;;;;22.85;12.40;;;;;;;-0.98;66.61;102001.16;7396639;19;20022;-66
2022/03/09 00:23:01;;;;;;;20.25;11.90;;;;;;;-1.02;66.73;101999.25;7395445;19;20018;-66
2022/03/09 00:25:29;;;;;;;17.40;10.75;;;;;;;-1.07;66.95;101998.16;7395177;19;20022;-66
2022/03/09 00:27:57;;;;;;;17.90;11.70;;;;;;;-1.09;67.04;102002.34;7394704;19;20018;-65
2022/03/09 00:30:25;;;;;;;15.70;10.85;;;;;;;-1.12;66.93;102003.09;7396369;19;20030;-66
2022/03/09 00:32:53;;;;;;;15.00;9.32;;;;;;;-1.15;67.17;102000.38;7395300;19;20043;-66
2022/03/09 00:35:22;;;;;;;14.75;10.18;;;;;;;-1.19;67.45;101999.38;7394735;19;20023;-66
2022/03/09 00:37:50;;;;;;;15.20;10.30;;;;;;;-1.21;67.30;102008.69;7394473;19;20026;-66
2022/03/09 00:40:21;;;;;;;17.85;9.82;;;;;;;-1.24;67.59;102012.81;7395976;19;20022;-66
2022/03/09 00:42:49;;;;;;;15.23;10.20;;;;;;;-1.26;67.61;102011.84;7394619;19;20476;-66
2022/03/09 00:45:17;;;;;;;14.77;9.45;;;;;;;-1.30;67.59;102016.00;7394151;19;20018;-66
2022/03/09 00:47:45;;;;;;;11.05;8.55;;;;;;;-1.33;67.86;102013.28;7395788;19;20039;-66
2022/03/09 00:50:13;;;;;;;14.48;9.13;;;;;;;-1.34;67.83;102011.50;7394895;19;20018;-66
2022/03/09 00:52:41;;;;;;;13.15;8.00;;;;;;;-1.38;67.80;102014.75;7394559;19;20507;-66
2022/03/09 00:55:17;;;;;;;15.98;9.10;;;;;;;-1.42;67.78;102015.41;7393799;19;20014;-66
2022/03/09 00:57:48;;;;;;;11.77;7.22;;;;;;;-1.50;68.07;102005.63;7395657;19;20044;-66
2022/03/09 01:00:16;;;;;;;11.70;7.45;;;;;;;-1.48;68.15;102019.47;7395425;19;20036;-66
2022/03/09 01:02:46;;;;;;;11.52;7.40;;;;;;;-1.50;68.18;102022.78;7394480;19;20023;-66
2022/03/09 01:05:15;;;;;;;13.63;7.65;;;;;;;-1.52;67.98;102021.81;7393232;19;20375;-66
2022/03/09 01:07:44;;;;;;;11.68;7.20;;;;;;;-1.55;68.16;102021.69;7395142;19;20018;-66
2022/03/09 01:10:13;;;;;;;10.93;6.72;;;;;;;-1.56;68.26;102019.91;7393351;19;20031;-67
2022/03/09 01:12:41;;;;;;;9.82;6.25;;;;;;;-1.58;68.51;102022.41;7394201;19;20023;-67
2022/03/09 01:15:12;;;;;;;11.15;7.70;;;;;;;-1.61;68.48;102013.66;7393730;19;20018;-67
2022/03/09 01:17:40;;;;;;;11.65;6.65;;;;;;;-1.63;68.67;102008.44;7393283;19;20033;-66
2022/03/09 01:20:10;;;;;;;10.02;6.90;;;;;;;-1.65;68.79;102010.03;7392664;19;20479;-66
2022/03/09 01:22:39;;;;;;;11.48;6.97;;;;;;;-1.69;68.77;102009.00;7396560;19;20371;-66
2022/03/09 01:25:08;;;;;;;10.63;7.32;;;;;;;-1.71;68.95;102000.31;7399102;19;20381;-66
2022/03/09 01:27:36;;;;;;;10.52;7.53;;;;;;;-1.73;68.91;102004.53;7402030;19;20496;-66
2022/03/09 01:30:05;;;;;;;9.95;6.65;;;;;;;-1.75;69.15;102005.25;7402288;19;20026;-67
2022/03/09 01:32:36;;;;;;;12.43;7.13;;;;;;;-1.78;69.12;101995.69;7400672;19;20451;-67
2022/03/09 01:35:05;;;;;;;10.82;6.93;;;;;;;-1.80;69.03;101999.88;7400579;19;20028;-67
2022/03/09 01:37:33;;;;;;;8.00;6.38;;;;;;;-1.84;69.09;101997.97;7399279;19;20014;-72
2022/03/09 01:40:02;;;;;;;11.25;6.82;;;;;;;-1.84;69.41;101998.84;7402406;19;20037;-71
2022/03/09 01:42:30;;;;;;;11.73;7.53;;;;;;;-1.86;69.04;101991.84;7400832;19;20035;-69
2022/03/09 01:45:02;;;;;;;11.18;7.28;;;;;;;-1.87;69.35;102000.38;7401797;19;20022;-69
2022/03/09 01:47:30;;;;;;;13.27;7.45;;;;;;;-1.90;69.34;101998.53;7398670;19;20412;-69
2022/03/09 01:50:02;;;;;;;10.25;6.60;;;;;;;-1.92;69.46;101995.03;7401687;19;20036;-70
2022/03/09 01:52:30;;;;;;;13.15;7.03;;;;;;;-1.94;69.45;101990.63;7400297;19;20479;-69
2022/03/09 01:54:58;;;;;;;11.38;6.45;;;;;;;-1.95;69.38;101997.44;7400102;19;20053;-70
2022/03/09 01:57:26;;;;;;;11.77;6.95;;;;;;;-1.99;69.43;101993.81;7401512;19;20018;-69
2022/03/09 01:59:55;;;;;;;11.32;6.95;;;;;;;-2.02;69.55;101987.63;7400981;19;20479;-70
2022/03/09 02:02:23;;;;;;;11.18;7.22;;;;;;;-2.04;69.67;101991.84;7400356;19;20023;-70
2022/03/09 02:04:51;;;;;;;12.68;7.80;;;;;;;-2.07;69.78;101995.13;7401246;19;20035;-70
2022/03/09 02:09:41;;;;;;;12.60;8.27;;;;;;;-2.08;69.56;101995.06;7400800;19;20033;-67
2022/03/09 02:10:09;;;;;;;13.77;7.40;;;;;;;-2.12;69.70;101991.44;7400399;19;20018;-67
2022/03/09 02:12:43;;;;;;;11.05;7.57;;;;;;;-2.16;69.82;101992.09;7399596;19;20027;-66
2022/03/09 02:15:11;;;;;;;;;;;;;;;-2.19;69.94;101992.81;7398937;19;20031;-67
2022/03/09 02:17:39;;;;;;;13.15;7.25;;;;;;;-2.21;69.65;101989.31;7398864;19;19932;-67
2022/03/09 02:20:09;;;;;;;9.82;6.72;;;;;;;-2.24;69.45;101986.56;7400347;19;20471;-71
2022/03/09 02:22:41;;;;;;;11.27;7.40;;;;;;;-2.25;69.79;101989.97;7399529;19;20035;-70
2022/03/09 02:25:11;;;;;;;11.30;7.38;;;;;;;-2.28;69.81;101999.19;7401424;19;20011;-66
2022/03/09 02:27:40;;;;;;;13.90;7.72;;;;;;;-2.28;70.19;101983.78;7398400;19;20022;-66
2022/03/09 02:30:10;;;;;;;12.02;7.78;;;;;;;-2.31;69.95;101987.06;7400371;19;20035;-66
2022/03/09 02:32:42;;;;;;;12.88;7.90;;;;;;;-2.33;70.16;101991.25;7397391;19;20127;-66
2022/03/09 02:35:11;;;;;;;10.50;7.28;;;;;;;-2.35;70.32;101987.69;7398574;19;20517;-66
2022/03/09 02:37:43;;;;;;;12.65;7.55;;;;;;;-2.37;70.35;101984.19;7400202;19;20022;-66
2022/03/09 02:40:14;;;;;;;11.40;7.40;;;;;;;-2.39;70.36;101989.25;7400083;19;20022;-66
2022/03/09 02:42:42;;;;;;;12.93;7.28;;;;;;;-2.43;70.46;101981.28;7399049;19;20018;-65
2022/03/09 02:45:12;;;;;;;11.20;6.35;;;;;;;-2.42;70.53;101983.06;7397443;19;20023;-66
2022/03/09 02:47:42;;;;;;;12.02;7.35;;;;;;;-2.44;70.36;101980.41;7399813;19;20023;-66
2022/03/09 02:50:11;;;;;;;13.57;6.85;;;;;;;-2.45;70.54;101978.66;7399351;19;20471;-66
2022/03/09 02:52:44;;;;;;;10.75;6.85;;;;;;;-2.47;70.84;101977.69;7398163;19;20386;-66
2022/03/09 02:55:13;;;;;;;11.07;7.43;;;;;;;-2.50;70.93;101977.53;7397565;19;20018;-66
2022/03/09 02:57:48;;;;;;;12.43;6.90;;;;;;;-2.51;71.00;101980.91;7399494;19;20022;-66
2022/03/09 03:00:16;;;;;;;8.68;5.75;;;;;;;-2.54;70.96;101980.72;7399751;19;20031;-65
2022/03/09 03:02:45;;;;;;;10.40;6.82;;;;;;;-2.56;70.94;101982.34;7398129;19;20039;-65
2022/03/09 03:05:13;;;;;;;11.20;7.05;;;;;;;-2.59;70.91;101983.09;7399153;19;20022;-68
2022/03/09 03:07:44;;;;;;;10.77;6.68;;;;;;;-2.60;70.98;101988.13;7396786;19;20023;-67
2022/03/09 03:10:12;;;;;;;11.20;6.60;;;;;;;-2.63;71.17;101997.44;7396423;19;20375;-66
2022/03/09 03:12:40;;;;;;;8.82;7.00;;;;;;;-2.65;71.08;101987.91;7397823;19;20019;-66
2022/03/09 03:15:09;;;;;;;11.05;6.30;;;;;;;-2.66;71.25;101989.56;7397921;19;20018;-66
2022/03/09 03:17:38;;;;;;;11.32;7.22;;;;;;;-2.67;71.15;101994.63;7397995;19;20010;-67
2022/03/09 03:20:08;;;;;;;10.75;6.95;;;;;;;-2.69;71.26;101988.53;7398613;19;20014;-67
2022/03/09 03:22:36;;;;;;;11.30;6.53;;;;;;;-2.71;71.55;101991.00;7399597;19;20031;-69
2022/03/09 03:25:08;;;;;;;9.13;5.93;;;;;;;-2.72;71.65;101986.66;7399791;19;20040;-67
2022/03/09 03:27:36;;;;;;;9.32;6.70;;;;;;;-2.74;71.61;101984.81;7398029;19;20031;-67
2022/03/09 03:30:04;;;;;;;8.52;5.53;;;;;;;-2.75;71.62;101983.09;7399241;19;20488;-67
2022/03/09 03:32:32;;;;;;;10.63;7.00;;;;;;;-2.77;71.77;101988.13;7396971;19;20023;-72
2022/03/09 03:35:01;;;;;;;11.23;6.85;;;;;;;-2.77;71.91;101988.13;7397040;19;20102;-66
2022/03/09 03:37:29;;;;;;;9.60;7.07;;;;;;;-2.80;71.85;101993.97;7395414;19;20484;-67
2022/03/09 03:39:57;;;;;;;14.10;7.53;;;;;;;-2.80;71.95;101999.13;7397239;19;20475;-66
2022/03/09 03:42:28;;;;;;;10.75;6.68;;;;;;;-2.81;72.07;101993.91;7397256;19;20032;-67
2022/03/09 03:44:56;;;;;;;9.95;6.07;;;;;;;-2.83;72.00;101998.97;7396680;19;20026;-67
2022/03/09 03:47:24;;;;;;;12.90;7.68;;;;;;;-2.84;72.08;101997.19;7397832;19;20062;-67
2022/03/09 03:49:53;;;;;;;12.05;6.07;;;;;;;-2.87;71.92;101997.06;7395884;19;20026;-67
2022/03/09 03:52:21;;;;;;;10.38;7.28;;;;;;;-2.89;72.15;101996.06;7395204;19;20492;-67
2022/03/09 03:54:49;;;;;;;10.98;6.55;;;;;;;-2.90;72.05;101993.44;7395506;19;20039;-67
2022/03/09 03:57:17;;;;;;;10.32;7.40;;;;;;;-2.92;72.21;101998.47;7395421;19;20031;-67
2022/03/09 03:59:48;;;;;;;10.18;6.82;;;;;;;-2.97;72.56;101993.09;7397571;19;20019;-67
2022/03/09 04:02:16;;;;;;;11.15;7.07;;;;;;;-2.94;72.51;102000.09;7397072;19;20032;-67
2022/03/09 04:04:44;;;;;;;12.23;7.07;;;;;;;-2.97;72.54;101989.63;7397020;19;20039;-67
2022/03/09 04:07:12;;;;;;;8.20;6.07;;;;;;;-2.97;72.81;101993.09;7394669;19;20482;-67
2022/03/09 04:09:40;;;;;;;10.32;6.40;;;;;;;-2.97;72.65;101994.75;7396730;19;20020;-67
2022/03/09 04:12:10;;;;;;;11.30;7.50;;;;;;;-3.00;72.65;101997.19;7396228;19;20019;-67
2022/03/09 04:14:38;;;;;;;11.05;6.85;;;;;;;-3.01;72.65;102010.81;7396798;19;20035;-67
2022/03/09 04:17:09;;;;;;;10.57;7.38;;;;;;;-3.04;72.97;102011.53;7395498;19;20467;-67
2022/03/09 04:19:37;;;;;;;12.02;6.63;;;;;;;-3.06;72.94;102010.56;7396716;19;20022;-66
2022/03/09 04:22:06;;;;;;;10.68;6.57;;;;;;;-3.07;72.80;102013.03;7396144;19;20014;-67
2022/03/09 04:24:34;;;;;;;9.95;6.45;;;;;;;-3.10;73.05;102016.34;7396590;19;20031;-66
2022/03/09 04:27:03;;;;;;;12.43;7.53;;;;;;;-3.11;73.02;102022.25;7396129;19;20035;-67
2022/03/09 04:29:31;;;;;;;9.90;6.90;;;;;;;-3.14;73.20;102017.84;7396318;19;20040;-67
2022/03/09 04:32:00;;;;;;;10.27;6.93;;;;;;;-3.16;73.25;102018.56;7395506;19;20547;-68
2022/03/09 04:34:30;;;;;;;11.07;6.97;;;;;;;-3.17;73.27;102024.50;7396219;19;20014;-66
2022/03/09 04:36:59;;;;;;;10.57;6.88;;;;;;;-3.18;73.48;102020.19;7394444;19;20031;-65
2022/03/09 04:39:27;;;;;;;12.80;7.90;;;;;;;-3.21;73.51;102020.91;7395547;19;20019;-67
2022/03/09 04:41:55;;;;;;;13.30;8.38;;;;;;;-3.21;73.70;102028.59;7395021;19;20025;-66
2022/03/09 04:44:23;;;;;;;13.30;7.03;;;;;;;-3.22;73.61;102020.78;7393963;19;20022;-67
2022/03/09 04:46:51;;;;;;;12.52;7.82;;;;;;;-3.24;73.72;102022.41;7395299;19;20472;-65
2022/03/09 04:49:20;;;;;;;12.10;7.13;;;;;;;-3.25;73.78;102023.19;7395885;19;20014;-66
2022/03/09 04:51:50;;;;;;;10.48;7.25;;;;;;;-3.27;73.71;102016.28;7394621;19;20371;-67
2022/03/09 04:54:19;;;;;;;11.05;7.10;;;;;;;-3.28;73.90;102017.09;7396381;19;20018;-65
2022/03/09 04:56:47;;;;;;;13.15;8.85;;;;;;;-3.29;73.84;102017.00;7393767;19;20035;-67
2022/03/09 04:59:17;;;;;;;10.75;6.50;;;;;;;-3.29;74.10;102022.13;7395386;19;20019;-67
2022/03/09 05:01:45;;;;;;;13.57;7.97;;;;;;;-3.29;74.33;102027.28;7394979;19;20015;-67
2022/03/09 05:04:13;;;;;;;11.70;7.30;;;;;;;-3.31;74.01;102036.56;7394898;19;20362;-67
2022/03/09 05:06:41;;;;;;;11.70;7.97;;;;;;;-3.31;74.54;102027.19;7394970;19;20032;-66
2022/03/09 05:09:12;;;;;;;15.30;7.40;;;;;;;-3.33;74.40;102031.34;7392573;19;20031;-66
2022/03/09 05:11:40;;;;;;;14.00;7.72;;;;;;;-3.33;74.27;102035.59;7395082;19;20022;-66
2022/03/09 05:14:09;;;;;;;12.35;8.15;;;;;;;-3.35;74.62;102032.06;7392879;19;20085;-65
2022/03/09 05:16:37;;;;;;;13.02;8.52;;;;;;;-3.37;74.27;102039.69;7392077;19;20019;-66
2022/03/09 05:19:05;;;;;;;14.32;7.43;;;;;;;-3.38;74.45;102039.59;7392627;19;20018;-67
2022/03/09 05:21:34;;;;;;;16.60;9.40;;;;;;;-3.39;74.72;102041.25;7394017;19;20011;-67
2022/03/09 05:24:02;;;;;;;16.27;9.70;;;;;;;-3.39;74.51;102036.13;7392384;19;20035;-67
2022/03/09 05:26:32;;;;;;;16.70;10.23;;;;;;;-3.39;74.53;102036.13;7392280;19;20018;-67
2022/03/09 05:29:01;;;;;;;23.05;11.40;;;;;;;-3.40;74.89;102041.19;7395658;19;20014;-67
2022/03/09 05:31:29;;;;;;;40.92;15.70;;;;;;;-3.41;74.61;102047.13;7393716;19;20039;-66
2022/03/09 05:33:57;;;;;;;43.33;15.23;;;;;;;-3.42;74.75;102050.47;7391037;19;20031;-65
2022/03/09 05:36:25;;;;;;;47.10;17.10;;;;;;;-3.43;74.86;102044.47;7392393;19;20015;-66
2022/03/09 05:38:53;;;;;;;30.73;13.55;;;;;;;-3.45;74.63;102046.06;7393785;19;20024;-67
2022/03/09 05:41:22;;;;;;;27.65;10.30;;;;;;;-3.47;74.88;102045.97;7393885;19;20018;-65
2022/03/09 05:43:53;;;;;;;19.65;9.20;;;;;;;-3.49;74.73;102044.13;7391389;19;20443;-66
2022/03/09 05:46:21;;;;;;;18.48;8.80;;;;;;;-3.51;75.02;102045.72;7394720;19;20032;-66
2022/03/09 05:48:49;;;;;;;16.40;8.55;;;;;;;-3.52;74.98;102052.53;7393443;19;20018;-67
2022/03/09 05:51:17;;;;;;;16.00;7.25;;;;;;;-3.52;75.03;102060.22;7390606;19;20023;-70
2022/03/09 05:53:45;;;;;;;16.30;8.43;;;;;;;-3.54;75.13;102059.25;7391017;19;20014;-66
2022/03/09 05:56:14;;;;;;;13.80;7.57;;;;;;;-3.57;74.98;102064.22;7390457;19;20483;-67
2022/03/09 05:58:42;;;;;;;16.65;8.30;;;;;;;-3.57;75.06;102066.78;7390352;19;20014;-70
2022/03/09 06:01:13;;;;;;;13.40;7.63;;;;;;;-3.56;74.88;102067.66;7389865;19;20486;-64
2022/03/09 06:03:41;;;;;;;10.88;7.57;;;;;;;-3.57;75.17;102066.78;7390648;19;20014;-67
2022/03/09 06:06:09;;;;;;;17.50;9.35;;;;;;;-3.57;75.07;102066.78;7389618;19;20126;-67
2022/03/09 06:08:59;;;;;;;16.77;8.60;;;;;;;-3.58;74.73;102071.81;7395652;19;20019;-67
2022/03/09 06:11:27;;;;;;;16.80;8.75;;;;;;;-3.57;74.78;102071.03;7400123;19;20011;-66
2022/03/09 06:13:55;;;;;;;16.33;8.80;;;;;;;-3.58;75.04;102070.13;7397615;19;20014;-66
2022/03/09 06:16:26;;;;;;;16.25;8.18;;;;;;;-3.56;74.89;102075.34;7396553;19;20010;-66
2022/03/09 06:19:07;;;;;;;16.23;9.07;;;;;;;-3.56;74.91;102078.81;7396112;19;20011;-66
2022/03/09 06:21:35;;;;;;;16.67;9.23;;;;;;;-3.54;74.89;102076.34;7399840;19;20022;-64
2022/03/09 06:24:03;;;;;;;24.52;9.63;;;;;;;-3.53;74.87;102078.09;7396712;19;20027;-66
2022/03/09 06:26:31;;;;;;;17.23;8.50;;;;;;;-3.52;74.88;102074.75;7396584;19;20019;-66
2022/03/09 06:29:00;;;;;;;19.52;11.80;;;;;;;-3.50;75.33;102078.28;7400207;19;20044;-67
2022/03/09 06:31:30;;;;;;;12.57;7.97;;;;;;;-3.51;75.61;102076.53;7400059;19;20018;-66
2022/03/09 06:33:59;;;;;;;12.80;8.57;;;;;;;-3.48;75.76;102072.44;7396364;19;20037;-66
2022/03/09 06:36:27;;;;;;;14.95;9.45;;;;;;;-3.43;75.98;102077.81;7397996;19;20041;-67
2022/03/09 06:38:55;;;;;;;13.00;9.40;;;;;;;-3.41;76.04;102083.94;7399463;19;20014;-65
2022/03/09 06:41:23;;;;;;;13.05;9.27;;;;;;;-3.41;76.08;102077.91;7396335;19;20479;-66
2022/03/09 06:43:51;;;;;;;13.35;9.68;;;;;;;-3.35;76.11;102079.16;7396932;19;20032;-66
2022/03/09 06:46:20;;;;;;;19.10;13.23;;;;;;;-3.30;75.98;102079.41;7396680;19;20037;-66
2022/03/09 06:48:50;;;;;;;22.42;15.55;;;;;;;-3.25;76.23;102082.25;7399374;19;20089;-66
2022/03/09 06:51:19;;;;;;;28.10;18.20;;;;;;;-3.18;76.36;102090.38;7397175;19;20019;-66
2022/03/09 06:53:47;;;;;;;25.15;14.85;;;;;;;-3.11;75.98;102091.59;7397154;19;20023;-66
2022/03/09 06:56:15;;;;;;;15.93;11.02;;;;;;;-3.05;76.59;102093.63;7398368;19;20019;-67
2022/03/09 06:58:43;;;;;;;14.00;9.07;;;;;;;-2.99;76.79;102097.41;7396620;19;20019;-65
2022/03/09 07:01:11;;;;;;;10.60;7.97;;;;;;;-2.91;76.75;102096.97;7398843;19;20015;-66
2022/03/09 07:03:39;;;;;;;12.63;8.25;;;;;;;-2.85;76.56;102097.28;7396309;19;20511;-67
2022/03/09 07:06:10;;;;;;;19.98;7.63;;;;;;;-2.80;76.79;102091.59;7398530;19;20014;-66
2022/03/09 07:08:38;;;;;;;12.27;7.38;;;;;;;-2.70;76.67;102092.13;7398514;19;20032;-67
2022/03/09 07:11:07;;;;;;;11.45;7.70;;;;;;;-2.63;76.61;102094.19;7396313;19;20015;-67
2022/03/09 07:13:35;;;;;;;10.73;7.68;;;;;;;-2.56;76.49;102095.44;7396476;19;20027;-67
2022/03/09 07:16:03;;;;;;;20.77;9.48;;;;;;;-2.49;76.78;102100.06;7395679;19;20014;-67
2022/03/09 07:18:31;;;;;;;13.25;8.20;;;;;;;-2.42;76.97;102099.59;7395705;19;20010;-67
2022/03/09 07:20:59;;;;;;;16.52;8.93;;;;;;;-2.34;76.85;102098.34;7395381;19;20032;-67
2022/03/09 07:23:30;;;;;;;15.80;10.48;;;;;;;-2.26;77.19;102101.31;7395609;19;20524;-66
2022/03/09 07:25:58;;;;;;;29.70;10.85;;;;;;;-2.18;77.12;102096.56;7398237;19;20021;-67
2022/03/09 07:28:26;;;;;;;27.00;13.98;;;;;;;-2.09;76.95;102099.59;7398145;19;20027;-66
2022/03/09 07:30:54;;;;;;;14.63;10.20;;;;;;;-2.00;76.76;102101.78;7397748;19;20021;-67
2022/03/09 07:33:22;;;;;;;17.27;9.65;;;;;;;-1.91;76.85;102099.66;7395671;19;20011;-67
2022/03/09 07:35:51;;;;;;;16.95;10.18;;;;;;;-1.81;77.14;102101.03;7397017;19;20015;-65
2022/03/09 07:38:19;;;;;;;19.38;10.38;;;;;;;-1.80;76.82;102093.38;7394648;19;20483;-67
2022/03/09 07:40:49;;;;;;;17.70;10.30;;;;;;;-1.62;76.95;102104.53;7397466;19;20023;-66
2022/03/09 07:43:18;;;;;;;20.23;11.52;;;;;;;-1.55;76.69;102110.06;7396357;19;20014;-66
2022/03/09 07:45:46;;;;;;;28.67;13.52;;;;;;;-1.48;76.85;102104.41;7397180;19;20045;-66
2022/03/09 07:48:14;;;;;;;19.02;12.20;;;;;;;-1.39;76.61;102108.22;7395389;19;20015;-65
2022/03/09 07:50:43;;;;;;;20.85;12.18;;;;;;;-1.29;76.82;102115.59;7397457;19;20018;-67
2022/03/09 07:53:11;;;;;;;22.80;12.65;;;;;;;-1.21;76.66;102106.56;7395827;19;20019;-65
2022/03/09 07:55:39;;;;;;;20.20;11.93;;;;;;;-1.10;76.57;102107.09;7397375;19;20041;-66
2022/03/09 07:58:10;;;;;;;17.73;12.32;;;;;;;-0.99;76.67;102112.75;7394940;19;20479;-66
2022/03/09 08:00:38;;;;;;;26.75;11.20;;;;;;;-0.88;76.70;102108.97;7395490;19;20067;-65
2022/03/09 08:03:06;;;;;;;19.25;11.65;;;;;;;-0.77;76.56;102106.94;7394842;19;20015;-66
2022/03/09 08:05:35;;;;;;;19.50;12.00;;;;;;;-0.64;76.53;102105.78;7395110;19;20018;-66
2022/03/09 08:08:03;;;;;;;24.85;11.98;;;;;;;-0.54;76.48;102105.41;7394390;19;20482;-66
2022/03/09 08:10:31;;;;;;;38.60;14.85;;;;;;;-0.42;76.41;102102.47;7396630;19;20018;-67
2022/03/09 08:13:00;;;;;;;25.30;13.52;;;;;;;-0.29;76.23;102103.03;7394876;19;20014;-67
2022/03/09 08:15:30;;;;;;;23.83;13.98;;;;;;;-0.17;76.05;102111.31;7394837;19;20032;-66
2022/03/09 08:17:58;;;;;;;17.75;10.52;;;;;;;-0.05;75.91;102113.56;7394592;19;20341;-67
2022/03/09 08:20:26;;;;;;;18.50;11.63;;;;;;;0.08;76.04;102109.84;7393982;19;20018;-66
2022/03/09 08:22:55;;;;;;;18.35;10.35;;;;;;;0.21;75.72;102111.25;7394445;19;20019;-68
2022/03/09 08:25:23;;;;;;;16.83;10.23;;;;;;;0.32;75.66;102112.56;7394261;19;20015;-67
2022/03/09 08:27:51;;;;;;;13.55;8.70;;;;;;;0.43;75.36;102107.84;7394089;19;20035;-68
2022/03/09 08:30:19;;;;;;;14.52;9.95;;;;;;;0.56;75.23;102109.25;7395693;19;20357;-67
2022/03/09 08:32:50;;;;;;;14.32;9.13;;;;;;;0.69;75.07;102108.94;7394497;19;20028;-67
2022/03/09 08:35:18;;;;;;;10.82;7.68;;;;;;;0.80;74.73;102105.09;7393755;19;20378;-66
2022/03/09 08:37:46;;;;;;;12.32;8.07;;;;;;;0.95;74.46;102106.53;7393842;19;20010;-66
2022/03/09 08:40:15;;;;;;;13.45;8.35;;;;;;;1.08;74.24;102106.19;7396051;19;20010;-66
2022/03/09 08:42:43;;;;;;;11.85;8.00;;;;;;;1.20;73.75;102110.97;7394730;19;20015;-66
2022/03/09 08:45:11;;;;;;;12.20;8.35;;;;;;;1.34;73.30;102106.31;7395219;19;20123;-67
2022/03/09 08:47:40;;;;;;;13.98;6.78;;;;;;;1.48;73.25;102100.78;7396632;19;20014;-65
2022/03/09 08:50:12;;;;;;;13.13;6.57;;;;;;;1.62;72.85;102100.47;7395460;19;20041;-66
2022/03/09 08:52:41;;;;;;;12.77;6.28;;;;;;;1.76;72.25;102100.97;7394432;19;20378;-66
2022/03/09 08:55:10;;;;;;;11.75;5.70;;;;;;;1.92;72.17;102111.88;7393652;19;20023;-67
2022/03/09 08:57:38;;;;;;;10.02;6.20;;;;;;;2.06;71.80;102105.50;7393574;19;20475;-66
2022/03/09 09:00:08;;;;;;;7.93;4.82;;;;;;;2.21;71.09;102115.50;7395612;19;20019;-66
2022/03/09 09:02:36;;;;;;;6.70;4.57;;;;;;;2.36;70.75;102112.53;7394555;19;20024;-67
2022/03/09 09:05:06;;;;;;;9.68;5.40;;;;;;;2.48;70.46;102111.19;7394101;19;20018;-66
2022/03/09 09:07:36;;;;;;;7.78;5.55;;;;;;;2.60;70.07;102104.72;7392830;19;20342;-66
2022/03/09 09:10:06;;;;;;;8.15;5.88;;;;;;;2.73;69.86;102107.69;7393606;19;20390;-65
2022/03/09 09:12:34;;;;;;;7.43;5.82;;;;;;;2.84;69.53;102106.34;7394152;19;20020;-66
2022/03/09 09:15:02;;;;;;;7.13;5.50;;;;;;;2.98;69.08;102109.38;7394782;19;20014;-65
2022/03/09 09:17:30;;;;;;;12.00;6.75;;;;;;;3.07;68.65;102112.25;7393746;19;20020;-66
2022/03/09 09:19:59;;;;;;;8.63;5.60;;;;;;;3.18;68.09;102114.31;7394444;19;20019;-66
2022/03/09 09:22:27;;;;;;;7.97;5.57;;;;;;;3.30;68.06;102111.19;7393240;19;20369;-66
2022/03/09 09:24:57;;;;;;;7.93;4.75;;;;;;;3.40;67.64;102113.25;7392581;19;20018;-67
2022/03/09 09:27:26;;;;;;;8.27;4.90;;;;;;;3.50;66.76;102098.81;7393695;19;20381;-67
2022/03/09 09:29:54;;;;;;;6.50;4.32;;;;;;;3.62;66.43;102101.78;7394360;19;20019;-66
2022/03/09 09:32:22;;;;;;;8.00;3.85;;;;;;;3.73;65.94;102097.75;7393794;19;20019;-67
2022/03/09 09:34:50;;;;;;;9.07;5.18;;;;;;;3.86;65.55;102087.72;7393727;19;20483;-67
2022/03/09 09:37:19;;;;;;;6.07;4.32;;;;;;;3.99;65.04;102091.53;7392562;19;20023;-66
2022/03/09 09:39:53;;;;;;;6.97;4.70;;;;;;;4.11;64.32;102090.97;7392166;19;20031;-67
2022/03/09 09:42:30;;;;;;;6.38;3.78;;;;;;;4.21;63.83;102093.00;7392164;19;20018;-67
2022/03/09 09:45:00;;;;;;;8.80;4.25;;;;;;;4.31;63.55;102092.41;7402223;19;20011;-67
2022/03/09 09:47:29;;;;;;;10.82;4.75;;;;;;;4.42;63.11;102091.78;7398698;19;20103;-66
2022/03/09 09:49:58;;;;;;;5.38;3.60;;;;;;;4.52;62.53;102092.03;7398663;19;20014;-66
2022/03/09 09:52:28;;;;;;;8.77;4.18;;;;;;;4.67;62.08;102085.47;7400338;19;20039;-66
2022/03/09 09:54:59;;;;;;;6.03;4.10;;;;;;;4.79;61.52;102084.88;7401281;19;20019;-66
2022/03/09 09:57:31;;;;;;;5.97;3.63;;;;;;;4.85;61.20;102082.44;7399074;19;20043;-67
2022/03/09 10:00:02;;;;;;;7.28;3.95;;;;;;;4.97;60.19;102082.72;7401451;19;20018;-66
2022/03/09 10:02:30;;;;;;;7.25;4.00;;;;;;;5.11;59.82;102088.22;7398899;19;20014;-67
2022/03/09 10:04:58;;;;;;;9.07;4.05;;;;;;;5.22;59.85;102075.47;7400785;19;20033;-66
2022/03/09 10:07:27;;;;;;;8.02;4.55;;;;;;;5.32;58.94;102077.41;7400717;19;20374;-67
2022/03/09 10:09:55;;;;;;;7.85;3.90;;;;;;;5.44;58.29;102079.41;7400568;19;20019;-66
2022/03/09 10:12:31;;;;;;;7.43;4.03;;;;;;;5.58;56.79;102084.88;7399687;19;20019;-66
2022/03/09 10:15:00;;;;;;;7.72;4.00;;;;;;;5.70;57.38;102076.47;7401094;19;20090;-66
2022/03/09 10:17:41;;;;;;;4.70;3.47;;;;;;;5.80;56.68;102069.69;7398709;19;20019;-66
2022/03/09 10:20:11;;;;;;;6.82;3.10;;;;;;;5.90;56.54;102075.94;7400214;19;20036;-66
2022/03/09 10:22:41;;;;;;;4.88;3.05;;;;;;;5.98;56.27;102077.88;7398802;19;20019;-66
2022/03/09 10:25:23;;;;;;;6.10;2.78;;;;;;;6.06;54.23;102082.38;7400078;19;20028;-66
2022/03/09 10:27:55;;;;;;;5.63;2.90;;;;;;;6.16;54.66;102079.09;7400571;19;20011;-66
2022/03/09 10:30:24;;;;;;;6.13;3.08;;;;;;;6.27;54.23;102076.66;7399863;19;20018;-67
2022/03/09 10:32:56;;;;;;;8.02;3.45;;;;;;;6.36;54.07;102076.81;7397407;19;20018;-66
2022/03/09 10:35:43;;;;;;;33.25;4.68;;;;;;;6.44;53.29;102079.56;7398047;19;20021;-66
2022/03/09 10:38:26;;;;;;;6.07;3.20;;;;;;;6.49;51.28;102072.69;7396988;19;20019;-66
2022/03/09 10:40:56;;;;;;;5.05;3.40;;;;;;;6.57;53.56;102078.03;7399834;19;20011;-66
2022/03/09 10:43:29;;;;;;;8.85;3.15;;;;;;;6.62;53.49;102069.44;7396627;19;20504;-66
2022/03/09 10:46:02;;;;;;;14.48;3.85;;;;;;;6.67;52.51;102070.38;7399809;19;20017;-65
2022/03/09 10:48:52;;;;;;;8.23;3.20;;;;;;;6.73;49.64;102068.72;7397205;19;20010;-66
2022/03/09 10:51:32;;;;;;;5.63;3.17;;;;;;;6.80;51.73;102070.59;7399804;19;20021;-65
2022/03/09 10:54:02;;;;;;;5.40;2.80;;;;;;;6.84;52.15;102069.78;7396637;19;20022;-64
2022/03/09 10:56:30;;;;;;;4.05;2.97;;;;;;;6.90;52.05;102068.97;7399345;19;20041;-67
2022/03/09 10:59:10;;;;;;;3.97;2.83;;;;;;;6.95;49.28;102064.69;7396942;19;20035;-66
2022/03/09 11:01:39;;;;;;;7.22;3.42;;;;;;;6.99;50.94;102064.75;7397089;19;20037;-66
2022/03/09 11:04:15;;;;;;;5.75;3.30;;;;;;;7.08;50.51;102056.19;7396141;19;20483;-67
2022/03/09 11:06:46;;;;;;;5.28;3.58;;;;;;;7.16;50.73;102053.69;7398684;19;20021;-67
2022/03/09 11:09:16;;;;;;;5.32;2.83;;;;;;;7.23;50.73;102060.75;7399154;19;20023;-67
2022/03/09 11:11:45;;;;;;;5.07;2.65;;;;;;;7.28;50.76;102066.00;7398477;19;20028;-66
2022/03/09 11:14:18;;;;;;;5.10;2.88;;;;;;;7.34;49.14;102058.25;7398475;19;20022;-66
2022/03/09 11:16:47;;;;;;;5.20;3.05;;;;;;;7.41;49.55;102048.78;7396220;19;20341;-67
2022/03/09 11:19:16;;;;;;;4.47;2.92;;;;;;;7.45;49.64;102050.56;7395502;19;20022;-66
2022/03/09 11:21:45;;;;;;;7.72;3.10;;;;;;;7.52;49.46;102046.28;7397734;19;20022;-65
2022/03/09 11:24:14;;;;;;;4.50;2.53;;;;;;;7.58;49.05;102049.88;7397696;19;20022;-65
2022/03/09 11:26:45;;;;;;;16.67;5.97;;;;;;;7.64;49.00;102041.22;7395511;19;20357;-66
2022/03/09 11:29:16;;;;;;;23.60;8.48;;;;;;;7.68;49.23;102031.69;7396036;19;20036;-65